Time;durP1;ratioP1;P1;durP2;ratioP2;P2;SDS_P1;SDS_P2;PMS_P1;PMS_P2;Temp;Humidity;BMP_temperature;BMP_pressure;BME280_temperature;BME280_humidity;BME280_pressure;Samples;Min_cycle;Max_cycle;Signal;HPM_P1;HPM_P2
2022/11/03 00:00:05;;;;;;;9.07;2.38;;;13.00;99.90;;;;;;4950799;28;39040;-82
2022/11/03 00:02:34;;;;;;;18.63;3.75;;;13.10;99.90;;;;;;4955681;28;38596;-84
2022/11/03 00:08:03;;;;;;;16.15;3.08;;;13.10;99.90;;;;;;4936633;28;50900;-82
2022/11/03 00:10:45;;;;;;;12.68;2.60;;;13.10;99.90;;;;;;4946199;28;48158;-81
2022/11/03 00:13:12;;;;;;;13.30;3.40;;;13.10;99.90;;;;;;4945890;28;39787;-82
2022/11/03 00:15:58;;;;;;;18.33;3.00;;;13.00;99.90;;;;;;4943224;28;38182;-83
2022/11/03 00:18:28;;;;;;;17.70;3.72;;;12.90;99.90;;;;;;4968632;28;37060;-81
2022/11/03 00:21:03;;;;;;;13.25;2.70;;;13.00;99.90;;;;;;4940350;28;39062;-84
2022/11/03 00:23:37;;;;;;;16.65;2.67;;;13.00;99.90;;;;;;4952231;28;47239;-82
2022/11/03 00:26:28;;;;;;;15.32;2.78;;;13.00;99.90;;;;;;4967267;28;36911;-84
2022/11/03 00:28:59;;;;;;;18.48;2.50;;;13.00;99.90;;;;;;4932571;28;50226;-82
2022/11/03 00:31:34;;;;;;;15.93;2.60;;;13.00;99.90;;;;;;4954528;28;38247;-83
2022/11/03 00:34:04;;;;;;;17.08;2.90;;;13.00;99.90;;;;;;4966670;28;35994;-83
2022/11/03 00:36:42;;;;;;;16.90;2.75;;;13.00;99.90;;;;;;4925389;28;47530;-81
2022/11/03 00:39:10;;;;;;;13.02;2.92;;;13.00;99.90;;;;;;4963349;28;38783;-81
2022/11/03 00:41:41;;;;;;;13.88;3.10;;;12.90;99.90;;;;;;4963957;28;37165;-82
2022/11/03 00:44:09;;;;;;;15.85;2.80;;;13.00;99.90;;;;;;4944944;28;37227;-82
2022/11/03 00:46:40;;;;;;;16.55;3.47;;;12.90;99.90;;;;;;4933445;28;39500;-82
2022/11/03 00:49:08;;;;;;;10.93;2.85;;;12.80;99.90;;;;;;4928502;28;35040;-80
2022/11/03 00:51:38;;;;;;;14.30;2.65;;;12.90;99.90;;;;;;4967580;28;38884;-83
2022/11/03 00:54:06;;;;;;;19.40;3.65;;;12.80;99.90;;;;;;4935764;28;38980;-81
2022/11/03 00:56:35;;;;;;;12.73;2.55;;;12.90;99.90;;;;;;4953432;28;35756;-81
2022/11/03 00:59:07;;;;;;;12.68;3.20;;;12.80;99.90;;;;;;4967897;28;35938;-83
2022/11/03 01:01:42;;;;;;;14.32;2.05;;;12.90;99.90;;;;;;4932410;28;47383;-82
2022/11/03 01:07:04;;;;;;;;;;;12.90;99.90;;;;;;4965040;28;39748;-82
2022/11/03 01:10:17;;;;;;;17.75;3.38;;;12.90;99.90;;;;;;4921443;28;49080;-82
2022/11/03 01:12:44;;;;;;;18.95;2.75;;;12.90;99.90;;;;;;4967301;28;48777;-84
2022/11/03 01:15:17;;;;;;;16.20;2.58;;;12.80;99.90;;;;;;4919645;28;39722;-82
2022/11/03 01:17:45;;;;;;;15.82;2.67;;;12.80;99.90;;;;;;4898812;29;37589;-83
2022/11/03 01:20:28;;;;;;;16.95;3.08;;;12.90;99.90;;;;;;4928440;28;37918;-83
2022/11/03 01:23:00;;;;;;;13.73;2.35;;;12.90;99.90;;;;;;4925233;28;38309;-84
2022/11/03 01:25:37;;;;;;;12.27;2.50;;;12.90;99.90;;;;;;4930546;28;38677;-83
2022/11/03 01:28:08;;;;;;;15.95;2.50;;;12.80;99.90;;;;;;4918138;28;38640;-84
2022/11/03 01:30:42;;;;;;;11.50;2.90;;;12.80;99.90;;;;;;4919332;29;37394;-84
2022/11/03 01:33:13;;;;;;;16.90;3.50;;;12.80;99.90;;;;;;4930683;28;37688;-83
2022/11/03 01:35:53;;;;;;;19.83;3.25;;;12.80;99.90;;;;;;4912000;28;37831;-83
2022/11/03 01:38:21;;;;;;;18.00;3.67;;;12.80;99.90;;;;;;4905801;28;37409;-83
2022/11/03 01:41:00;;;;;;;15.73;2.80;;;12.70;99.90;;;;;;4911066;28;36503;-82
2022/11/03 01:43:33;;;;;;;18.23;2.85;;;12.70;99.90;;;;;;4901367;28;38031;-82
2022/11/03 01:46:10;;;;;;;14.15;3.45;;;12.70;99.90;;;;;;4926903;29;37571;-82
2022/11/03 01:48:42;;;;;;;15.63;2.75;;;12.70;99.90;;;;;;4932556;28;48571;-83
2022/11/03 01:51:17;;;;;;;15.77;3.45;;;12.70;99.90;;;;;;4908812;28;36172;-82
2022/11/03 01:53:50;;;;;;;13.50;2.60;;;12.60;99.90;;;;;;4916078;28;38635;-81
2022/11/03 01:56:21;;;;;;;17.27;3.40;;;12.60;99.90;;;;;;4899593;28;37645;-82
2022/11/03 01:58:57;;;;;;;12.13;2.65;;;12.60;99.90;;;;;;4934075;28;37782;-81
2022/11/03 02:04:49;;;;;;;16.80;3.08;;;12.60;99.90;;;;;;4015933;23;20059;-80
2022/11/03 02:10:41;;;;;;;20.40;2.88;;;12.70;99.90;;;;;;4928913;28;50074;-81
2022/11/03 02:13:22;;;;;;;15.32;3.28;;;12.70;99.90;;;;;;4935535;28;37384;-82
2022/11/03 02:16:00;;;;;;;18.17;3.17;;;12.70;99.90;;;;;;4955162;28;38675;-81
2022/11/03 02:19:06;;;;;;;25.30;3.88;;;12.80;99.90;;;;;;4934298;28;39092;-82
2022/11/03 02:22:13;;;;;;;13.65;2.22;;;12.80;99.90;;;;;;4936620;28;49395;-82
2022/11/03 02:25:02;;;;;;;13.40;3.33;;;12.90;99.90;;;;;;4913760;29;47582;-83
2022/11/03 02:27:34;;;;;;;13.55;2.65;;;12.90;99.90;;;;;;4907244;28;37878;-83
2022/11/03 02:30:09;;;;;;;16.52;2.78;;;12.90;99.90;;;;;;4921441;29;37408;-81
2022/11/03 02:33:07;;;;;;;15.40;3.58;;;12.90;99.90;;;;;;4935075;28;36607;-82
2022/11/03 02:36:04;;;;;;;14.57;2.80;;;12.90;99.90;;;;;;4931209;28;49078;-82
2022/11/03 02:38:33;;;;;;;13.77;2.35;;;12.90;99.90;;;;;;4925231;28;46943;-82
2022/11/03 02:41:07;;;;;;;12.70;2.78;;;12.80;99.90;;;;;;4927691;28;38643;-83
2022/11/03 02:43:34;;;;;;;15.95;2.55;;;12.90;99.90;;;;;;4901140;29;48500;-81
2022/11/03 02:46:05;;;;;;;14.00;2.90;;;12.90;99.90;;;;;;4915371;29;36909;-81
2022/11/03 02:48:33;;;;;;;15.98;3.33;;;13.00;99.90;;;;;;4950897;28;47617;-81
2022/11/03 02:51:06;;;;;;;12.43;2.70;;;13.00;99.90;;;;;;4945854;28;38737;-84
2022/11/03 02:53:51;;;;;;;11.82;2.42;;;12.90;99.90;;;;;;4949757;29;48480;-84
2022/11/03 02:56:29;;;;;;;13.93;3.22;;;12.90;99.90;;;;;;4943825;28;36764;-81
2022/11/03 02:59:13;;;;;;;14.38;2.58;;;13.00;99.90;;;;;;4952549;28;39211;-84
2022/11/03 03:02:01;;;;;;;15.52;3.08;;;13.00;99.90;;;;;;4949778;28;47347;-83
2022/11/03 03:04:56;;;;;;;14.77;2.92;;;12.90;99.90;;;;;;4944347;28;37731;-81
2022/11/03 03:07:40;;;;;;;15.38;3.30;;;13.00;99.90;;;;;;4924008;28;37870;-82
2022/11/03 03:10:08;;;;;;;13.90;2.83;;;13.00;99.90;;;;;;4963311;28;39371;-82
2022/11/03 03:12:45;;;;;;;13.73;2.75;;;13.00;99.90;;;;;;4952808;28;36907;-81
2022/11/03 03:15:13;;;;;;;10.80;3.15;;;13.00;99.90;;;;;;4963202;28;38655;-83
2022/11/03 03:17:49;;;;;;;11.25;2.80;;;13.00;99.90;;;;;;4961993;28;38810;-82
2022/11/03 03:20:41;;;;;;;15.10;3.13;;;13.10;99.90;;;;;;4969321;28;39871;-83
2022/11/03 03:23:53;;;;;;;11.40;2.67;;;13.10;99.90;;;;;;4957644;28;39138;-82
2022/11/03 03:26:29;;;;;;;14.23;2.65;;;13.00;99.90;;;;;;4907880;29;38235;-80
2022/11/03 03:29:06;;;;;;;15.68;3.80;;;13.00;99.90;;;;;;4910433;29;38532;-82
2022/11/03 03:31:37;;;;;;;17.80;3.67;;;13.00;99.90;;;;;;4887515;29;47357;-81
2022/11/03 03:34:05;;;;;;;10.52;2.60;;;13.00;99.90;;;;;;4931758;28;38044;-82
2022/11/03 03:36:44;;;;;;;17.63;2.53;;;13.00;99.90;;;;;;4955252;28;48635;-80
2022/11/03 03:39:18;;;;;;;10.45;2.38;;;13.00;99.90;;;;;;4922131;28;36348;-82
2022/11/03 03:41:50;;;;;;;11.07;2.15;;;13.00;99.90;;;;;;4959064;28;39916;-82
2022/11/03 03:44:28;;;;;;;15.27;2.80;;;13.10;99.90;;;;;;4956814;28;38914;-82
2022/11/03 03:47:01;;;;;;;15.50;3.13;;;13.00;99.90;;;;;;4958853;28;38778;-82
2022/11/03 03:52:24;;;;;;;15.48;2.95;;;13.00;99.90;;;;;;4968619;28;39446;-83
2022/11/03 03:54:51;;;;;;;;;;;13.00;99.90;;;;;;4961561;28;38457;-83
2022/11/03 03:57:30;;;;;;;13.30;2.70;;;12.90;99.90;;;;;;4960818;28;38004;-83
2022/11/03 04:00:16;;;;;;;13.00;2.92;;;12.90;99.90;;;;;;4946695;28;37232;-83
2022/11/03 04:02:46;;;;;;;12.32;2.97;;;13.00;99.90;;;;;;4948255;28;47886;-82
2022/11/03 04:05:12;;;;;;;13.25;2.88;;;13.00;99.90;;;;;;4905391;29;37305;-83
2022/11/03 04:07:47;;;;;;;16.70;2.70;;;12.90;99.90;;;;;;4938986;28;36731;-81
2022/11/03 04:10:18;;;;;;;17.23;3.10;;;12.90;99.90;;;;;;4930343;28;37989;-84
2022/11/03 04:23:59;;;;;;;15.68;2.78;;;12.90;99.90;;;;;;4955622;28;50563;-81
2022/11/03 04:26:34;;;;;;;9.15;2.13;;;12.90;99.90;;;;;;4953576;28;39315;-82
2022/11/03 04:29:10;;;;;;;13.07;2.63;;;12.90;99.90;;;;;;4954775;28;37948;-82
2022/11/03 04:31:43;;;;;;;18.70;3.17;;;12.90;99.90;;;;;;4935154;29;48235;-82
2022/11/03 04:34:17;;;;;;;11.93;2.58;;;13.00;99.90;;;;;;4923633;28;38114;-80
2022/11/03 04:36:47;;;;;;;17.13;2.75;;;13.00;99.90;;;;;;4924205;28;37355;-80
2022/11/03 04:39:21;;;;;;;12.57;2.42;;;13.00;99.90;;;;;;4939682;28;37367;-81
2022/11/03 04:41:50;;;;;;;11.02;2.65;;;13.10;99.90;;;;;;4926122;28;36747;-81
2022/11/03 04:44:19;;;;;;;11.20;2.53;;;13.10;99.90;;;;;;4912094;28;38175;-83
2022/11/03 04:46:46;;;;;;;14.40;3.15;;;13.10;99.90;;;;;;4936070;28;38865;-81
2022/11/03 04:49:21;;;;;;;12.27;2.85;;;13.20;99.90;;;;;;4933547;28;37008;-82
2022/11/03 04:51:48;;;;;;;17.15;2.55;;;13.20;99.90;;;;;;4928499;28;36820;-83
2022/11/03 04:54:23;;;;;;;12.98;2.80;;;13.20;99.90;;;;;;4953512;28;38764;-82
2022/11/03 04:56:52;;;;;;;12.45;2.63;;;13.30;99.90;;;;;;4921203;28;38233;-82
2022/11/03 04:59:19;;;;;;;9.43;2.35;;;13.30;99.90;;;;;;4927302;28;38340;-83
2022/11/03 05:02:11;;;;;;;13.80;2.72;;;13.30;99.90;;;;;;4946186;28;36245;-81
2022/11/03 05:04:37;;;;;;;12.27;2.37;;;13.30;99.90;;;;;;4925821;28;50162;-82
2022/11/03 05:07:30;;;;;;;9.43;2.15;;;13.30;99.90;;;;;;4926262;28;38656;-83
2022/11/03 05:10:17;;;;;;;14.52;2.33;;;13.40;99.90;;;;;;4918998;28;38543;-82
2022/11/03 05:12:52;;;;;;;15.07;3.00;;;13.40;99.90;;;;;;4928052;28;48596;-82
2022/11/03 05:15:36;;;;;;;10.65;2.80;;;13.40;99.90;;;;;;4931527;28;38963;-83
2022/11/03 05:18:25;;;;;;;11.52;3.60;;;13.30;99.90;;;;;;4918161;28;38853;-83
2022/11/03 05:21:21;;;;;;;9.68;2.67;;;13.40;99.90;;;;;;4937280;28;38218;-83
2022/11/03 05:24:13;;;;;;;13.20;3.05;;;13.40;99.90;;;;;;4927039;28;49030;-82
2022/11/03 05:26:44;;;;;;;13.35;2.65;;;13.40;99.90;;;;;;4951213;28;49048;-84
2022/11/03 05:29:35;;;;;;;11.93;2.70;;;13.40;99.90;;;;;;4949498;28;37428;-82
2022/11/03 05:32:25;;;;;;;12.18;2.55;;;13.30;99.90;;;;;;4949661;28;38512;-81
2022/11/03 05:35:19;;;;;;;12.02;2.42;;;13.40;99.90;;;;;;4952795;28;36118;-83
2022/11/03 05:37:46;;;;;;;10.88;2.70;;;13.30;99.90;;;;;;4954585;28;47734;-82
2022/11/03 05:40:21;;;;;;;13.82;3.38;;;13.30;99.90;;;;;;4945831;28;38392;-82
2022/11/03 05:43:11;;;;;;;12.60;2.90;;;13.30;99.90;;;;;;4949150;28;37278;-83
2022/11/03 05:45:53;;;;;;;14.70;2.88;;;13.20;99.90;;;;;;4947099;28;48490;-83
2022/11/03 05:48:35;;;;;;;12.35;2.95;;;13.20;99.90;;;;;;4949835;28;38915;-82
2022/11/03 05:51:23;;;;;;;12.35;2.55;;;13.20;99.90;;;;;;4947116;28;37782;-84
2022/11/03 05:53:56;;;;;;;11.98;2.78;;;13.20;99.90;;;;;;4949624;28;47866;-84
2022/11/03 05:56:34;;;;;;;16.33;3.13;;;13.20;99.90;;;;;;4949389;28;37772;-84
2022/11/03 05:59:17;;;;;;;10.95;2.83;;;13.20;99.90;;;;;;4952458;28;40357;-80
2022/11/03 06:01:53;;;;;;;14.57;2.65;;;13.20;99.90;;;;;;4950949;28;48099;-82
2022/11/03 06:04:43;;;;;;;11.80;2.53;;;13.20;99.90;;;;;;4966305;28;39901;-82
2022/11/03 06:07:44;;;;;;;;;;;;;;;;;;;;;
2022/11/03 06:10:34;;;;;;;9.25;2.65;;;13.30;99.90;;;;;;4967594;28;40034;-81
2022/11/03 06:13:38;;;;;;;12.40;2.80;;;13.20;99.90;;;;;;4959225;28;38955;-83
2022/11/03 06:16:44;;;;;;;14.63;2.92;;;13.20;99.90;;;;;;4963968;28;50125;-85
2022/11/03 06:19:40;;;;;;;11.93;2.05;;;13.20;99.90;;;;;;4948249;28;50203;-83
2022/11/03 06:22:44;;;;;;;13.02;2.40;;;13.20;99.90;;;;;;4955828;28;37819;-84
2022/11/03 06:25:36;;;;;;;7.15;2.38;;;13.20;99.90;;;;;;4963891;28;39129;-84
2022/11/03 06:28:38;;;;;;;9.38;2.92;;;13.20;99.90;;;;;;4955947;28;38387;-83
2022/11/03 06:31:27;;;;;;;18.05;3.17;;;13.30;99.90;;;;;;4936481;28;36923;-83
2022/11/03 06:34:10;;;;;;;7.03;2.25;;;13.30;99.90;;;;;;4970323;28;50151;-84
2022/11/03 06:36:45;;;;;;;9.15;2.67;;;13.30;99.90;;;;;;4954603;28;50269;-83
2022/11/03 06:39:25;;;;;;;15.20;3.03;;;13.30;99.90;;;;;;4961442;28;37206;-83
2022/11/03 06:41:56;;;;;;;9.40;2.65;;;13.30;99.90;;;;;;4949027;28;36339;-82
2022/11/03 06:44:28;;;;;;;11.07;2.85;;;13.20;99.90;;;;;;4963974;28;37718;-84
2022/11/03 06:47:16;;;;;;;12.52;2.70;;;13.20;99.90;;;;;;4974028;28;39221;-85
2022/11/03 06:49:43;;;;;;;11.60;3.25;;;13.10;99.90;;;;;;4969341;28;48804;-85
2022/11/03 06:52:22;;;;;;;11.25;2.47;;;13.10;99.90;;;;;;4971790;28;37461;-82
2022/11/03 06:55:27;;;;;;;12.05;2.78;;;12.90;99.90;;;;;;4971739;28;40185;-83
2022/11/03 06:58:14;;;;;;;14.95;3.22;;;12.90;99.90;;;;;;4966082;28;46850;-83
2022/11/03 07:00:46;;;;;;;8.85;2.53;;;12.80;99.90;;;;;;4968765;28;48345;-83
2022/11/03 07:03:26;;;;;;;11.77;2.83;;;12.80;99.90;;;;;;4968716;28;37319;-84
2022/11/03 07:06:09;;;;;;;12.00;2.88;;;12.80;99.90;;;;;;4983598;28;40186;-84
2022/11/03 07:08:54;;;;;;;9.23;2.17;;;12.80;99.90;;;;;;4971463;28;49985;-83
2022/11/03 07:11:27;;;;;;;16.02;3.42;;;12.70;99.90;;;;;;4969883;28;37603;-81
2022/11/03 07:14:21;;;;;;;9.93;2.28;;;12.70;99.90;;;;;;4968237;28;37181;-82
2022/11/03 07:17:02;;;;;;;13.82;2.90;;;12.70;99.90;;;;;;4986830;28;47792;-82
2022/11/03 07:19:46;;;;;;;9.55;2.40;;;12.70;99.90;;;;;;4979089;28;50150;-82
2022/11/03 07:22:19;;;;;;;16.48;3.05;;;12.80;99.90;;;;;;4958815;28;38595;-84
2022/11/03 07:25:02;;;;;;;20.42;2.75;;;12.80;99.90;;;;;;4948509;28;37585;-83
2022/11/03 07:27:45;;;;;;;11.70;2.95;;;12.70;99.90;;;;;;4949798;28;39689;-83
2022/11/03 07:30:30;;;;;;;9.25;2.40;;;12.70;99.90;;;;;;4973328;28;39076;-82
2022/11/03 07:33:11;;;;;;;9.27;3.05;;;12.70;99.90;;;;;;4974603;28;38948;-82
2022/11/03 07:35:44;;;;;;;12.50;3.33;;;12.70;99.90;;;;;;4969805;28;48258;-82
2022/11/03 07:38:21;;;;;;;14.15;2.88;;;12.70;99.90;;;;;;4952294;28;39280;-82
2022/11/03 07:40:56;;;;;;;10.57;3.42;;;12.70;99.90;;;;;;4974215;28;39200;-82
2022/11/03 07:44:02;;;;;;;14.65;2.60;;;12.70;99.90;;;;;;4974849;28;37143;-82
2022/11/03 07:46:46;;;;;;;9.77;3.05;;;12.80;99.90;;;;;;4966340;28;39214;-84
2022/11/03 07:49:34;;;;;;;13.48;3.10;;;12.80;99.90;;;;;;4986028;28;50106;-83
2022/11/03 07:52:19;;;;;;;10.23;2.88;;;12.80;99.90;;;;;;4969439;28;38615;-83
2022/11/03 07:54:46;;;;;;;8.48;2.70;;;12.80;99.90;;;;;;4960307;28;50130;-83
2022/11/03 07:57:48;;;;;;;15.60;3.47;;;12.80;99.90;;;;;;4975220;28;36680;-84
2022/11/03 08:00:20;;;;;;;9.23;2.88;;;12.90;99.90;;;;;;4946076;28;39159;-82
2022/11/03 08:02:59;;;;;;;16.75;2.83;;;12.90;99.90;;;;;;4967923;28;39139;-84
2022/11/03 08:05:27;;;;;;;14.30;3.20;;;12.90;99.90;;;;;;4969403;28;37295;-82
2022/11/03 08:07:54;;;;;;;17.38;3.13;;;12.90;99.90;;;;;;4972901;28;36244;-81
2022/11/03 08:10:23;;;;;;;10.60;3.30;;;12.90;99.90;;;;;;4946939;28;38011;-82
2022/11/03 08:13:03;;;;;;;;;;;;;;;;;;;;;
2022/11/03 08:15:34;;;;;;;17.98;3.25;;;12.90;99.90;;;;;;4966296;28;48173;-80
2022/11/03 08:18:01;;;;;;;22.40;3.83;;;12.90;99.90;;;;;;4973727;28;38014;-82
2022/11/03 08:20:51;;;;;;;10.77;3.00;;;13.00;99.90;;;;;;4974491;28;39887;-82
2022/11/03 08:23:35;;;;;;;14.65;3.13;;;13.00;99.90;;;;;;4973532;28;37702;-83
2022/11/03 08:26:19;;;;;;;14.95;3.00;;;13.10;99.90;;;;;;4966954;28;37675;-80
2022/11/03 08:28:53;;;;;;;9.00;2.78;;;13.10;99.90;;;;;;4946077;28;49035;-83
2022/11/03 08:31:19;;;;;;;23.08;4.32;;;13.10;99.90;;;;;;4928599;28;40505;-81
2022/11/03 08:33:58;;;;;;;17.75;3.50;;;13.10;99.90;;;;;;4958332;28;39661;-82
2022/11/03 08:36:29;;;;;;;14.45;3.22;;;13.10;99.90;;;;;;4955556;28;38702;-82
2022/11/03 08:42:21;;;;;;;10.50;3.10;;;13.20;99.90;;;;;;4957487;28;49725;-80
2022/11/03 08:45:05;;;;;;;11.10;3.03;;;13.20;99.90;;;;;;4991238;28;37015;-82
2022/11/03 08:47:35;;;;;;;15.90;4.50;;;13.20;99.90;;;;;;4948939;28;47375;-81
2022/11/03 08:50:16;;;;;;;14.07;2.63;;;13.30;99.90;;;;;;4974257;28;35800;-82
2022/11/03 08:55:39;;;;;;;16.90;3.55;;;13.30;99.90;;;;;;5109773;23;20048;-80
2022/11/03 08:58:07;;;;;;;14.77;2.83;;;13.30;99.90;;;;;;4935527;28;39339;-81
2022/11/03 09:01:02;;;;;;;14.25;3.33;;;13.30;99.90;;;;;;4921354;28;36221;-82
2022/11/03 09:03:53;;;;;;;13.60;2.80;;;13.40;99.90;;;;;;4933110;28;37592;-82
2022/11/03 09:06:25;;;;;;;15.43;3.67;;;13.40;99.90;;;;;;4947882;28;38545;-81
2022/11/03 09:08:53;;;;;;;;;;;13.40;99.90;;;;;;4941173;28;38868;-80
2022/11/03 09:11:23;;;;;;;12.35;2.85;;;13.40;99.90;;;;;;4937925;28;37719;-80
2022/11/03 09:14:12;;;;;;;13.32;3.10;;;13.50;99.90;;;;;;4948517;28;39270;-81
2022/11/03 09:16:44;;;;;;;16.13;2.97;;;13.50;99.90;;;;;;4939646;28;48180;-84
2022/11/03 09:19:15;;;;;;;16.25;2.88;;;13.60;99.90;;;;;;4923422;28;37656;-83
2022/11/03 09:21:42;;;;;;;15.38;3.60;;;13.60;99.90;;;;;;4934309;28;38446;-82
2022/11/03 09:24:09;;;;;;;16.10;4.03;;;13.70;99.90;;;;;;4947857;28;38944;-79
2022/11/03 09:26:43;;;;;;;14.63;2.67;;;13.70;99.90;;;;;;4950907;28;39387;-82
2022/11/03 09:29:31;;;;;;;12.27;2.92;;;13.70;99.90;;;;;;4934445;28;37528;-83
2022/11/03 09:32:09;;;;;;;10.55;2.70;;;13.80;99.90;;;;;;4952070;28;38038;-81
2022/11/03 09:34:42;;;;;;;15.50;3.00;;;13.80;99.90;;;;;;4915819;29;50004;-81
2022/11/03 09:37:29;;;;;;;11.55;2.63;;;13.80;99.90;;;;;;4922214;28;37352;-83
2022/11/03 09:40:20;;;;;;;9.60;2.97;;;13.90;99.90;;;;;;4932175;28;37673;-80
2022/11/03 09:42:48;;;;;;;9.45;3.35;;;13.90;99.90;;;;;;4953474;28;48975;-83
2022/11/03 09:45:29;;;;;;;11.85;2.72;;;13.90;99.90;;;;;;4947063;28;37599;-80
2022/11/03 09:48:12;;;;;;;16.23;3.37;;;13.90;99.90;;;;;;4947858;28;39191;-82
2022/11/03 09:51:04;;;;;;;11.35;3.00;;;13.90;99.90;;;;;;4900327;28;48522;-82
2022/11/03 09:53:31;;;;;;;16.25;2.65;;;13.90;99.90;;;;;;4965998;28;48015;-81
2022/11/03 09:56:11;;;;;;;15.48;3.38;;;13.90;99.90;;;;;;4965703;28;40544;-81
2022/11/03 09:58:41;;;;;;;12.80;3.53;;;13.90;99.90;;;;;;4948484;28;47940;-81
2022/11/03 10:01:12;;;;;;;12.00;2.17;;;13.90;99.90;;;;;;4944295;28;37055;-80
2022/11/03 10:03:48;;;;;;;14.32;3.25;;;13.90;99.90;;;;;;4955028;28;36250;-79
2022/11/03 10:06:16;;;;;;;10.13;2.75;;;14.00;99.90;;;;;;4925505;28;37823;-80
2022/11/03 10:08:47;;;;;;;13.48;2.58;;;14.00;99.90;;;;;;4947089;28;38045;-80
2022/11/03 10:11:16;;;;;;;8.02;2.53;;;14.00;99.90;;;;;;4942955;28;38194;-82
2022/11/03 10:13:52;;;;;;;16.15;2.90;;;13.90;99.90;;;;;;4938914;28;36530;-81
2022/11/03 10:16:23;;;;;;;19.95;3.33;;;14.00;99.90;;;;;;4925009;28;38329;-80
2022/11/03 10:18:50;;;;;;;8.00;2.30;;;14.00;99.90;;;;;;4960572;28;40327;-81
2022/11/03 10:21:33;;;;;;;9.57;2.50;;;14.10;99.90;;;;;;4946536;28;38711;-81
2022/11/03 10:23:59;;;;;;;12.50;2.50;;;14.10;99.90;;;;;;4932350;28;36406;-80
2022/11/03 10:26:43;;;;;;;9.80;2.42;;;14.10;99.90;;;;;;4956761;28;40378;-82
2022/11/03 10:29:55;;;;;;;11.40;3.30;;;14.10;99.90;;;;;;4943202;28;38752;-82
2022/11/03 10:32:42;;;;;;;9.27;2.08;;;14.10;99.90;;;;;;4949701;28;38948;-82
2022/11/03 10:35:35;;;;;;;9.45;2.65;;;14.10;99.90;;;;;;4921798;28;38636;-84
2022/11/03 10:38:57;;;;;;;13.32;2.85;;;14.20;99.90;;;;;;4957237;28;38470;-82
2022/11/03 10:41:31;;;;;;;10.77;2.17;;;14.30;99.90;;;;;;4932159;23;48846;-82
2022/11/03 10:44:14;;;;;;;12.45;2.70;;;14.30;99.90;;;;;;4922797;28;38824;-82
2022/11/03 10:47:07;;;;;;;8.32;2.28;;;14.40;99.90;;;;;;4951877;28;48865;-81
2022/11/03 10:49:45;;;;;;;9.73;2.33;;;14.50;99.90;;;;;;4923378;28;50202;-81
2022/11/03 10:52:28;;;;;;;9.88;2.55;;;14.40;99.90;;;;;;4912304;28;38574;-81
2022/11/03 10:55:27;;;;;;;10.80;2.70;;;14.30;99.90;;;;;;4892031;29;40453;-82
2022/11/03 10:58:20;;;;;;;10.20;2.70;;;14.30;99.90;;;;;;4898067;29;50088;-82
2022/11/03 11:01:01;;;;;;;11.10;2.63;;;14.30;99.90;;;;;;4932160;28;48750;-82
2022/11/03 11:03:40;;;;;;;11.77;2.53;;;14.40;99.90;;;;;;4923407;29;39429;-82
2022/11/03 11:06:30;;;;;;;10.48;2.20;;;14.30;99.90;;;;;;4939080;28;38999;-85
2022/11/03 11:09:07;;;;;;;9.10;2.10;;;14.30;99.90;;;;;;4935981;28;37795;-80
2022/11/03 11:11:59;;;;;;;7.85;1.98;;;14.30;99.90;;;;;;4904962;28;48778;-82
2022/11/03 11:14:28;;;;;;;13.00;2.58;;;14.30;99.90;;;;;;5009140;23;39330;-82
2022/11/03 11:17:45;;;;;;;5.50;1.90;;;14.40;99.90;;;;;;4960904;28;37510;-82
2022/11/03 11:20:54;;;;;;;13.43;3.50;;;14.50;99.90;;;;;;4951144;28;47817;-81
2022/11/03 11:23:26;;;;;;;8.80;2.63;;;14.50;99.90;;;;;;4965679;23;39429;-82
2022/11/03 11:26:17;;;;;;;;;;;14.50;99.90;;;;;;4911289;29;39386;-83
2022/11/03 11:29:18;;;;;;;12.80;2.15;;;14.60;99.90;;;;;;4917161;28;48997;-82
2022/11/03 11:31:46;;;;;;;9.07;2.28;;;14.60;99.90;;;;;;4933658;28;48895;-83
2022/11/03 11:34:39;;;;;;;8.75;2.80;;;14.60;99.90;;;;;;4906120;28;38751;-83
2022/11/03 11:37:14;;;;;;;;;;;14.70;99.90;;;;;;4900366;29;37812;-82
2022/11/03 11:40:00;;;;;;;11.02;2.33;;;14.60;99.90;;;;;;4925479;29;37941;-83
2022/11/03 11:42:53;;;;;;;8.13;2.38;;;14.60;99.90;;;;;;4906835;29;37237;-82
2022/11/03 11:46:05;;;;;;;11.98;2.85;;;14.50;99.90;;;;;;4932991;28;38828;-82
2022/11/03 11:48:36;;;;;;;7.38;2.25;;;14.60;99.90;;;;;;4931607;29;49369;-83
2022/11/03 11:51:10;;;;;;;11.38;1.95;;;14.60;99.90;;;;;;4915455;29;39092;-82
2022/11/03 11:53:45;;;;;;;6.28;2.10;;;14.70;99.90;;;;;;4934285;29;35699;-82
2022/11/03 11:56:13;;;;;;;6.90;2.28;;;14.80;99.90;;;;;;4916697;29;38691;-82
2022/11/03 11:58:47;;;;;;;10.02;2.35;;;14.80;99.90;;;;;;4911205;29;38241;-80
2022/11/03 12:01:32;;;;;;;6.35;1.90;;;14.90;99.90;;;;;;4946883;28;39362;-81
2022/11/03 12:04:13;;;;;;;9.27;2.20;;;14.90;99.90;;;;;;4945205;28;36117;-81
2022/11/03 12:06:40;;;;;;;7.30;2.13;;;14.90;99.90;;;;;;4933679;29;47357;-82
2022/11/03 12:09:15;;;;;;;4.95;1.90;;;14.80;99.90;;;;;;4933342;28;39996;-81
2022/11/03 12:11:52;;;;;;;9.02;2.22;;;14.90;99.90;;;;;;4938002;28;38516;-81
2022/11/03 12:14:26;;;;;;;6.85;2.33;;;15.00;99.90;;;;;;4935844;28;38723;-81
2022/11/03 12:16:52;;;;;;;8.35;1.80;;;15.00;99.90;;;;;;4933761;29;38010;-81
2022/11/03 12:19:44;;;;;;;7.85;1.95;;;15.10;99.90;;;;;;4919718;28;37132;-81
2022/11/03 12:22:32;;;;;;;5.07;1.85;;;15.30;99.90;;;;;;4927590;28;36751;-81
2022/11/03 12:25:03;;;;;;;6.70;1.80;;;15.40;99.90;;;;;;4933850;29;38627;-81
2022/11/03 12:27:29;;;;;;;8.13;2.20;;;15.50;99.90;;;;;;4925271;29;47064;-82
2022/11/03 12:29:58;;;;;;;13.00;2.28;;;15.60;99.90;;;;;;4929214;28;37361;-80
2022/11/03 12:32:25;;;;;;;6.07;1.60;;;15.70;99.90;;;;;;4927825;28;37035;-81
2022/11/03 12:34:53;;;;;;;9.88;2.05;;;15.90;99.90;;;;;;4917544;28;37288;-81
2022/11/03 12:37:19;;;;;;;9.18;1.92;;;16.00;99.90;;;;;;4916389;29;37529;-83
2022/11/03 12:39:45;;;;;;;8.52;2.38;;;15.90;99.90;;;;;;4919849;28;37905;-82
2022/11/03 12:42:11;;;;;;;5.35;1.52;;;16.00;99.90;;;;;;4919946;28;37903;-81
2022/11/03 12:44:38;;;;;;;4.78;2.10;;;16.20;99.90;;;;;;4919068;28;36557;-79
2022/11/03 12:47:04;;;;;;;6.13;1.88;;;16.10;99.90;;;;;;4932163;28;38149;-80
2022/11/03 12:49:31;;;;;;;5.75;2.20;;;15.90;99.90;;;;;;4931698;29;38809;-81
2022/11/03 12:52:04;;;;;;;11.15;2.20;;;15.90;99.90;;;;;;4927840;29;37610;-81
2022/11/03 12:54:31;;;;;;;8.15;1.70;;;15.80;99.90;;;;;;4919670;28;49125;-82
2022/11/03 12:56:57;;;;;;;10.15;2.10;;;15.90;99.90;;;;;;4918005;29;39177;-81
2022/11/03 12:59:23;;;;;;;11.23;1.90;;;16.00;99.90;;;;;;4920497;28;37501;-81
2022/11/03 13:01:49;;;;;;;8.15;1.70;;;16.00;99.90;;;;;;4913732;28;38593;-80
2022/11/03 13:04:15;;;;;;;7.70;2.10;;;16.00;99.90;;;;;;4914596;28;37016;-81
2022/11/03 13:06:42;;;;;;;4.82;1.63;;;16.10;99.90;;;;;;4912402;28;39439;-80
2022/11/03 13:09:08;;;;;;;7.85;1.98;;;16.10;99.90;;;;;;4924064;28;37800;-83
2022/11/03 13:14:19;;;;;;;10.15;1.90;;;16.20;99.90;;;;;;4920717;28;38803;-81
2022/11/03 13:16:46;;;;;;;11.50;2.47;;;16.10;99.90;;;;;;4918865;29;39848;-82
2022/11/03 13:19:12;;;;;;;7.72;1.98;;;16.20;99.90;;;;;;4918441;28;38736;-82
2022/11/03 13:21:38;;;;;;;9.25;1.88;;;16.10;99.90;;;;;;4917952;28;38078;-82
2022/11/03 13:24:04;;;;;;;7.65;2.38;;;16.10;99.90;;;;;;4929524;28;35925;-82
2022/11/03 13:26:31;;;;;;;6.72;1.80;;;16.10;99.90;;;;;;4939278;28;39921;-81
2022/11/03 13:28:57;;;;;;;5.30;1.67;;;16.00;99.90;;;;;;4941301;28;37433;-82
2022/11/03 13:31:23;;;;;;;5.28;1.70;;;16.10;99.90;;;;;;4937438;28;36974;-83
2022/11/03 13:33:51;;;;;;;8.63;2.20;;;16.00;99.90;;;;;;4939507;28;38665;-83
2022/11/03 13:36:17;;;;;;;8.07;1.80;;;16.00;99.90;;;;;;4941310;28;37721;-83
2022/11/03 13:38:43;;;;;;;10.05;1.88;;;15.90;99.90;;;;;;4937334;28;37848;-86
2022/11/03 13:41:09;;;;;;;8.60;1.85;;;15.90;99.90;;;;;;4933245;28;39166;-84
2022/11/03 13:43:36;;;;;;;8.77;1.80;;;15.90;99.90;;;;;;4943957;28;35745;-84
2022/11/03 13:46:03;;;;;;;5.45;1.92;;;15.90;99.90;;;;;;4944874;28;39168;-82
2022/11/03 13:48:29;;;;;;;6.10;1.92;;;15.90;99.90;;;;;;4941315;28;37414;-84
2022/11/03 13:50:56;;;;;;;7.18;1.70;;;15.90;99.90;;;;;;4940663;28;37260;-83
2022/11/03 13:53:23;;;;;;;6.63;1.85;;;15.80;99.90;;;;;;4943058;28;38141;-82
2022/11/03 13:55:49;;;;;;;5.63;1.83;;;15.80;99.90;;;;;;4948393;28;37958;-82
2022/11/03 13:58:19;;;;;;;4.57;1.77;;;15.80;99.90;;;;;;4949311;28;37321;-83
2022/11/03 14:00:49;;;;;;;6.55;1.80;;;15.80;99.90;;;;;;4937399;28;38170;-85
2022/11/03 14:03:15;;;;;;;5.30;1.75;;;15.80;99.90;;;;;;4939031;28;35592;-85
2022/11/03 14:05:41;;;;;;;8.07;1.88;;;15.80;99.90;;;;;;4939360;28;37720;-84
2022/11/03 14:08:07;;;;;;;7.13;1.88;;;15.80;99.90;;;;;;4935226;28;38581;-87
2022/11/03 14:10:33;;;;;;;5.38;1.77;;;15.80;99.90;;;;;;4936785;28;36735;-87